createdAt,value
2023-02-12T00:01:24.545Z,99408.03
2023-02-12T00:03:53.180Z,99403.72
2023-02-12T00:06:22.571Z,99413.41
2023-02-12T00:08:51.165Z,99412.97
2023-02-12T00:11:22.413Z,99420.56
2023-02-12T00:13:52.743Z,99411.94
2023-02-12T00:16:24.103Z,99403.72
2023-02-12T00:18:54.230Z,99404.97
2023-02-12T00:21:22.363Z,99408.06
2023-02-12T00:23:51.216Z,99408.50
2023-02-12T00:26:21.514Z,99403.50
2023-02-12T00:28:50.057Z,99395.38
2023-02-12T00:31:22.648Z,99399.47
2023-02-12T00:33:50.886Z,99412.47
2023-02-12T00:36:20.847Z,99403.22
2023-02-12T00:38:50.037Z,99408.16
2023-02-12T00:41:17.822Z,99402.75
2023-02-12T00:43:45.868Z,99397.69
2023-02-12T00:46:14.676Z,99402.00
2023-02-12T00:48:44.260Z,99402.03
2023-02-12T00:51:12.814Z,99398.94
2023-02-12T00:53:41.368Z,99398.88
2023-02-12T00:56:11.703Z,99406.94
2023-02-12T00:58:39.701Z,99388.03
2023-02-12T01:01:08.336Z,99399.22
2023-02-12T01:03:36.941Z,99401.69
2023-02-12T01:06:06.912Z,99410.28
2023-02-12T01:08:35.261Z,99411.19
2023-02-12T01:11:05.745Z,99404.38
2023-02-12T01:13:35.553Z,99407.78
2023-02-12T01:16:08.855Z,99402.53
2023-02-12T01:18:38.576Z,99413.13
2023-02-12T01:21:12.210Z,99408.81
2023-02-12T01:23:40.620Z,99407.41
2023-02-12T01:26:10.943Z,99412.47
2023-02-12T01:28:39.735Z,99414.63
2023-02-12T01:31:12.941Z,99418.00
2023-02-12T01:33:41.227Z,99419.56
2023-02-12T01:36:12.216Z,99424.94
2023-02-12T01:38:40.574Z,99422.16
2023-02-12T01:41:10.860Z,99425.16
2023-02-12T01:43:39.613Z,99420.44
2023-02-12T01:46:09.668Z,99419.47
2023-02-12T01:48:41.194Z,99424.63
2023-02-12T01:51:14.376Z,99415.41
2023-02-12T01:53:47.955Z,99413.53
2023-02-12T01:56:16.937Z,99426.88
2023-02-12T01:58:47.289Z,99425.94
2023-02-12T02:01:20.227Z,99418.63
2023-02-12T02:03:53.631Z,99421.28
2023-02-12T02:06:28.936Z,99426.81
2023-02-12T02:08:57.930Z,99430.63
2023-02-12T02:11:43.748Z,99428.38
2023-02-12T02:14:28.996Z,99437.69
2023-02-12T02:17:08.349Z,99438.81
2023-02-12T02:19:56.444Z,99433.28
2023-02-12T02:22:32.906Z,99438.59
2023-02-12T02:25:26.297Z,99434.22
2023-02-12T02:28:07.750Z,99433.88
2023-02-12T02:30:45.593Z,99418.00
2023-02-12T02:33:33.813Z,99435.06
2023-02-12T02:36:15.164Z,99424.00
2023-02-12T02:38:48.259Z,99424.22
2023-02-12T02:41:22.686Z,99425.28
2023-02-12T02:43:53.464Z,99420.34
2023-02-12T02:46:29.276Z,99416.09
2023-02-12T02:49:02.140Z,99412.13
2023-02-12T02:51:33.281Z,99416.00
2023-02-12T02:54:07.376Z,99426.81
2023-02-12T02:56:38.851Z,99426.16
2023-02-12T02:59:11.364Z,99429.59
2023-02-12T03:01:45.246Z,99430.13
2023-02-12T03:04:20.184Z,99418.19
2023-02-12T03:06:53.572Z,99427.94
2023-02-12T03:09:28.018Z,99434.41
2023-02-12T03:12:02.246Z,99426.25
2023-02-12T03:14:34.055Z,99432.59
2023-02-12T03:17:06.325Z,99428.09
2023-02-12T03:19:38.965Z,99432.13
2023-02-12T03:22:11.697Z,99435.91
2023-02-12T03:24:45.319Z,99450.91
2023-02-12T03:27:18.760Z,99439.06
2023-02-12T03:29:47.391Z,99434.41
2023-02-12T03:32:29.400Z,99451.13
2023-02-12T03:35:16.813Z,99443.13
2023-02-12T03:37:53.075Z,99452.75
2023-02-12T03:40:27.895Z,99444.50
2023-02-12T03:43:01.592Z,99447.34
2023-02-12T03:45:41.684Z,99438.00
2023-02-12T03:48:15.831Z,99447.72
2023-02-12T03:50:52.776Z,99435.38
2023-02-12T03:53:20.881Z,99447.78
2023-02-12T03:55:55.004Z,99443.53
2023-02-12T03:58:28.152Z,99441.69
2023-02-12T04:00:56.900Z,99449.03
2023-02-12T04:03:26.435Z,99451.91
2023-02-12T04:05:54.699Z,99452.84
2023-02-12T04:08:23.160Z,99449.88
2023-02-12T04:11:05.150Z,99451.59
2023-02-12T04:13:43.671Z,99455.94
2023-02-12T04:16:21.111Z,99460.69
2023-02-12T04:18:52.123Z,99461.22
2023-02-12T04:21:39.720Z,99474.53
2023-02-12T04:24:19.691Z,99463.25
2023-02-12T04:26:55.572Z,99467.22
2023-02-12T04:29:32.732Z,99468.94
2023-02-12T04:32:06.681Z,99471.31
2023-02-12T04:34:45.025Z,99486.91
2023-02-12T04:37:18.118Z,99486.50
2023-02-12T04:39:47.594Z,99486.19
2023-02-12T04:42:15.730Z,99479.69
2023-02-12T04:44:44.917Z,99483.19
2023-02-12T04:47:14.289Z,99476.25
2023-02-12T04:49:43.701Z,99488.78
2023-02-12T04:52:11.786Z,99486.47
2023-02-12T04:54:40.263Z,99484.44
2023-02-12T04:57:08.593Z,99460.03
2023-02-12T04:59:36.716Z,99482.44
2023-02-12T05:02:05.397Z,99483.19
2023-02-12T05:04:33.480Z,99479.69
2023-02-12T05:07:03.104Z,99487.00
2023-02-12T05:09:31.795Z,99477.06
2023-02-12T05:11:59.986Z,99476.63
2023-02-12T05:14:28.502Z,99472.50
2023-02-12T05:16:57.212Z,99482.56
2023-02-12T05:19:25.361Z,99485.72
2023-02-12T05:21:54.095Z,99480.38
2023-02-12T05:24:24.100Z,99481.34
2023-02-12T05:26:52.111Z,99483.72
2023-02-12T05:29:20.522Z,99488.34
2023-02-12T05:31:49.510Z,99486.78
2023-02-12T05:34:17.818Z,99486.13
2023-02-12T05:36:45.952Z,99491.84
2023-02-12T05:39:14.561Z,99496.88
2023-02-12T05:41:43.890Z,99495.13
2023-02-12T05:44:12.573Z,99501.56
2023-02-12T05:46:41.532Z,99500.38
2023-02-12T05:49:09.942Z,99497.84
2023-02-12T05:51:38.812Z,99504.88
2023-02-12T05:54:09.179Z,99501.03
2023-02-12T05:56:38.967Z,99502.78
2023-02-12T05:59:14.310Z,99499.34
2023-02-12T06:01:46.340Z,99510.16
2023-02-12T06:04:18.072Z,99508.91
2023-02-12T06:06:46.350Z,99518.56
2023-02-12T06:09:15.433Z,99507.41
2023-02-12T06:11:44.926Z,99515.78
2023-02-12T06:14:16.818Z,99514.94
2023-02-12T06:16:47.391Z,99509.06
2023-02-12T06:19:15.684Z,99509.00
2023-02-12T06:21:44.032Z,99516.53
2023-02-12T06:24:14.240Z,99520.16
2023-02-12T06:26:43.340Z,99535.19
2023-02-12T06:29:11.596Z,99524.72
2023-02-12T06:31:41.605Z,99526.97
2023-02-12T06:34:12.023Z,99525.75
2023-02-12T06:36:42.568Z,99532.69
2023-02-12T06:39:11.380Z,99544.31
2023-02-12T06:41:39.844Z,99534.44
2023-02-12T06:44:08.638Z,99552.38
2023-02-12T06:46:37.156Z,99553.31
2023-02-12T06:49:06.705Z,99558.38
2023-02-12T06:51:36.918Z,99561.63
2023-02-12T06:54:05.314Z,99557.25
2023-02-12T06:56:33.425Z,99561.25
2023-02-12T06:59:02.720Z,99562.00
2023-02-12T07:01:32.397Z,99553.25
2023-02-12T07:04:02.792Z,99572.38
2023-02-12T07:06:35.600Z,99562.16
2023-02-12T07:09:04.781Z,99574.91
2023-02-12T07:11:36.841Z,99575.22
2023-02-12T07:14:06.820Z,99564.84
2023-02-12T07:16:35.056Z,99577.16
2023-02-12T07:19:03.204Z,99568.09
2023-02-12T07:21:33.526Z,99574.88
2023-02-12T07:24:01.693Z,99584.00
2023-02-12T07:26:30.288Z,99588.06
2023-02-12T07:29:00.200Z,99584.03
2023-02-12T07:31:28.440Z,99585.34
2023-02-12T07:33:57.758Z,99590.31
2023-02-12T07:36:27.536Z,99594.94
2023-02-12T07:38:57.850Z,99597.84
2023-02-12T07:41:27.855Z,99594.09
2023-02-12T07:43:58.079Z,99601.44
2023-02-12T07:46:30.364Z,99598.44
2023-02-12T07:48:59.695Z,99609.88
2023-02-12T07:51:28.949Z,99599.13
2023-02-12T07:53:58.853Z,99605.84
2023-02-12T07:56:30.965Z,99607.47
2023-02-12T07:59:01.334Z,99606.91
2023-02-12T08:01:32.977Z,99608.22
2023-02-12T08:04:03.382Z,99614.69
2023-02-12T08:06:39.194Z,99614.28
2023-02-12T08:09:12.175Z,99610.66
2023-02-12T08:11:43.396Z,99611.69
2023-02-12T08:14:14.261Z,99619.53
2023-02-12T08:16:43.769Z,99619.84
2023-02-12T08:19:24.747Z,99607.38
2023-02-12T08:21:55.787Z,99617.59
2023-02-12T08:24:27.028Z,99618.59
2023-02-12T08:26:55.966Z,99617.19
2023-02-12T08:29:26.423Z,99614.84
2023-02-12T08:31:58.629Z,99616.97
2023-02-12T08:34:28.631Z,99626.88
2023-02-12T08:36:57.513Z,99619.81
2023-02-12T08:39:29.586Z,99623.94
2023-02-12T08:41:57.878Z,99621.88
2023-02-12T08:44:26.128Z,99624.75
2023-02-12T08:46:56.104Z,99621.78
2023-02-12T08:49:25.708Z,99618.25
2023-02-12T08:51:57.109Z,99632.00
2023-02-12T08:54:27.969Z,99634.56
2023-02-12T08:56:57.668Z,99625.06
2023-02-12T08:59:26.222Z,99635.50
2023-02-12T09:01:55.336Z,99640.97
2023-02-12T09:04:27.660Z,99634.25
2023-02-12T09:06:56.532Z,99642.66
2023-02-12T09:09:26.443Z,99631.09
2023-02-12T09:11:55.253Z,99641.16
2023-02-12T09:14:25.208Z,99639.66
2023-02-12T09:16:53.931Z,99645.03
2023-02-12T09:19:23.208Z,99640.34
2023-02-12T09:21:57.117Z,99633.59
2023-02-12T09:24:28.962Z,99642.00
2023-02-12T09:26:57.909Z,99644.34
2023-02-12T09:29:26.167Z,99628.91
2023-02-12T09:31:55.011Z,99643.84
2023-02-12T09:34:23.270Z,99647.81
2023-02-12T09:36:51.790Z,99643.91
2023-02-12T09:39:20.513Z,99648.84
2023-02-12T09:42:15.430Z,99650.81
2023-02-12T09:44:52.409Z,99648.50
2023-02-12T09:47:28.130Z,99649.31
2023-02-12T09:50:08.054Z,99653.06
2023-02-12T09:52:37.398Z,99656.50
2023-02-12T09:55:06.578Z,99664.00
2023-02-12T09:57:39.167Z,99655.50
2023-02-12T10:00:12.768Z,99654.41
2023-02-12T10:02:42.491Z,99646.53
2023-02-12T10:05:19.053Z,99646.22
2023-02-12T10:08:07.662Z,99640.38
2023-02-12T10:10:49.594Z,99639.69
2023-02-12T10:13:31.430Z,99643.78
2023-02-12T10:16:06.079Z,99650.00
2023-02-12T10:18:51.858Z,99638.19
2023-02-12T10:21:35.898Z,99651.41
2023-02-12T10:24:20.393Z,99648.09
2023-02-12T10:26:50.543Z,99636.78
2023-02-12T10:29:23.293Z,99643.66
2023-02-12T10:34:34.592Z,99646.13
2023-02-12T10:37:10.021Z,99638.13
2023-02-12T10:39:44.653Z,99639.59
2023-02-12T10:42:17.926Z,99636.28
2023-02-12T10:44:48.069Z,99637.16
2023-02-12T10:47:21.626Z,99637.72
2023-02-12T10:49:57.543Z,99640.94
2023-02-12T10:52:38.048Z,99645.22
2023-02-12T10:55:26.252Z,99647.38
2023-02-12T10:57:54.605Z,99647.81
2023-02-12T11:00:30.867Z,99637.56
2023-02-12T11:03:05.755Z,99640.78
2023-02-12T11:05:37.024Z,99640.88
2023-02-12T11:08:06.636Z,99646.63
2023-02-12T11:10:40.307Z,99637.81
2023-02-12T11:13:24.032Z,99641.38
2023-02-12T11:15:54.832Z,99638.22
2023-02-12T11:18:26.637Z,99640.00
2023-02-12T11:20:58.866Z,99640.66
2023-02-12T11:23:29.451Z,99641.31
2023-02-12T11:26:02.300Z,99641.00
2023-02-12T11:28:32.007Z,99643.25
2023-02-12T11:31:04.376Z,99634.41
2023-02-12T11:33:34.764Z,99631.78
2023-02-12T11:36:07.388Z,99628.50
2023-02-12T11:38:40.243Z,99623.22
2023-02-12T11:41:23.534Z,99621.84
2023-02-12T11:43:53.008Z,99622.72
2023-02-12T11:46:26.570Z,99619.13
2023-02-12T11:48:57.709Z,99625.47
2023-02-12T11:51:29.499Z,99620.63
2023-02-12T11:54:00.653Z,99624.53
2023-02-12T11:56:43.444Z,99617.63
2023-02-12T11:59:22.308Z,99608.97
2023-02-12T12:01:55.682Z,99617.09
2023-02-12T12:04:29.023Z,99613.53
2023-02-12T12:07:02.585Z,99619.25
2023-02-12T12:09:38.637Z,99610.03
2023-02-12T12:12:16.477Z,99609.94
2023-02-12T12:15:06.539Z,99608.84
2023-02-12T12:18:04.551Z,99607.22
2023-02-12T12:20:37.935Z,99598.59
2023-02-12T12:23:11.713Z,99607.72
2023-02-12T12:25:47.601Z,99615.81
2023-02-12T12:28:31.661Z,99612.88
2023-02-12T12:31:08.206Z,99612.69
2023-02-12T12:33:45.373Z,99616.41
2023-02-12T12:36:59.224Z,99615.16
2023-02-12T12:39:34.557Z,99620.88
2023-02-12T12:42:21.050Z,99620.59
2023-02-12T12:45:06.540Z,99617.88
2023-02-12T12:47:47.435Z,99626.66
2023-02-12T12:50:31.256Z,99622.34
2023-02-12T12:53:12.241Z,99620.97
2023-02-12T12:56:01.406Z,99618.28
2023-02-12T12:58:44.521Z,99611.66
2023-02-12T13:01:30.514Z,99616.84
2023-02-12T13:04:22.478Z,99614.06
2023-02-12T13:07:30.095Z,99618.59
2023-02-12T13:10:13.129Z,99620.13
2023-02-12T13:13:00.095Z,99621.06
2023-02-12T13:15:34.709Z,99615.66
2023-02-12T13:18:10.977Z,99616.47
2023-02-12T13:20:48.879Z,99612.38
2023-02-12T13:23:26.528Z,99613.78
2023-02-12T13:26:02.326Z,99611.41
2023-02-12T13:28:37.023Z,99614.72
2023-02-12T13:31:30.078Z,99621.72
2023-02-12T13:34:02.434Z,99601.84
2023-02-12T13:36:30.724Z,99607.56
2023-02-12T13:39:10.330Z,99594.75
2023-02-12T13:41:39.458Z,99607.03
2023-02-12T13:44:16.513Z,99602.66
2023-02-12T13:46:54.992Z,99613.56
2023-02-12T13:49:34.332Z,99607.72
2023-02-12T13:52:06.867Z,99605.88
2023-02-12T13:54:50.959Z,99591.81
2023-02-12T13:57:21.001Z,99602.09
2023-02-12T13:59:51.709Z,99591.84
2023-02-12T14:02:49.484Z,99598.69
2023-02-12T14:05:33.538Z,99603.25
2023-02-12T14:08:06.156Z,99593.94
2023-02-12T14:10:38.851Z,99581.22
2023-02-12T14:13:23.342Z,99587.53
2023-02-12T14:15:54.045Z,99590.91
2023-02-12T14:18:32.237Z,99594.97
2023-02-12T14:21:45.433Z,99599.06
2023-02-12T14:24:52.985Z,99596.44
2023-02-12T14:27:47.588Z,99599.09
2023-02-12T14:30:38.329Z,99583.91
2023-02-12T14:33:24.000Z,99597.84
2023-02-12T14:36:17.571Z,99592.97
2023-02-12T14:39:02.148Z,99596.53
2023-02-12T14:41:37.972Z,99606.53
2023-02-12T14:44:43.343Z,99593.63
2023-02-12T14:47:45.283Z,99595.25
2023-02-12T14:50:23.703Z,99587.41
2023-02-12T14:53:01.668Z,99601.47
2023-02-12T14:55:34.951Z,99589.28
2023-02-12T14:58:06.678Z,99594.72
2023-02-12T15:00:41.347Z,99599.56
2023-02-12T15:03:25.324Z,99595.84
2023-02-12T15:06:05.393Z,99574.56
2023-02-12T15:08:42.753Z,99580.50
2023-02-12T15:11:31.728Z,99578.94
2023-02-12T15:14:04.715Z,99579.72
2023-02-12T15:16:54.774Z,99578.88
2023-02-12T15:19:35.688Z,99570.69
2023-02-12T15:22:14.387Z,99570.56
2023-02-12T15:24:42.918Z,99565.28
2023-02-12T15:27:15.881Z,99567.06
2023-02-12T15:29:47.000Z,99572.59
2023-02-12T15:32:22.216Z,99573.47
2023-02-12T15:34:53.374Z,99561.69
2023-02-12T15:37:28.582Z,99558.63
2023-02-12T15:40:00.178Z,99570.75
2023-02-12T15:42:33.335Z,99564.88
2023-02-12T15:45:18.045Z,99555.25
2023-02-12T15:47:48.270Z,99557.81
2023-02-12T15:50:18.153Z,99556.22
2023-02-12T15:52:51.546Z,99556.78
2023-02-12T15:55:23.552Z,99566.78
2023-02-12T15:57:52.925Z,99561.84
2023-02-12T16:00:33.445Z,99562.94
2023-02-12T16:03:02.471Z,99555.47
2023-02-12T16:05:33.488Z,99553.66
2023-02-12T16:08:05.480Z,99552.44
2023-02-12T16:10:34.731Z,99549.91
2023-02-12T16:13:03.225Z,99551.16
2023-02-12T16:15:35.507Z,99555.44
2023-02-12T16:18:06.866Z,99556.00
2023-02-12T16:20:36.398Z,99562.59
2023-02-12T16:23:09.581Z,99563.75
2023-02-12T16:25:39.586Z,99569.47
2023-02-12T16:28:15.149Z,99566.47
2023-02-12T16:30:44.784Z,99572.81
2023-02-12T16:33:34.602Z,99572.66
2023-02-12T16:36:05.572Z,99573.41
2023-02-12T16:38:44.055Z,99570.94
2023-02-12T16:41:27.659Z,99575.56
2023-02-12T16:44:31.627Z,99578.69
2023-02-12T16:47:02.383Z,99571.00
2023-02-12T16:49:30.663Z,99576.81
2023-02-12T16:52:23.387Z,99582.28
2023-02-12T16:54:53.261Z,99588.94
2023-02-12T16:57:21.587Z,99585.88
2023-02-12T16:59:50.357Z,99591.09
2023-02-12T17:02:18.426Z,99591.59
2023-02-12T17:04:46.594Z,99599.34
2023-02-12T17:07:21.828Z,99604.75
2023-02-12T17:09:50.399Z,99600.50
2023-02-12T17:12:20.550Z,99603.06
2023-02-12T17:14:49.510Z,99598.72
2023-02-12T17:17:18.074Z,99608.84
2023-02-12T17:19:46.375Z,99602.16
2023-02-12T17:22:21.603Z,99602.53
2023-02-12T17:24:51.738Z,99601.13
2023-02-12T17:27:22.150Z,99604.75
2023-02-12T17:29:50.568Z,99607.66
2023-02-12T17:32:19.031Z,99613.69
2023-02-12T17:38:34.534Z,99618.28
2023-02-12T17:41:02.784Z,99627.31
2023-02-12T17:43:31.931Z,99621.91
2023-02-12T17:46:01.209Z,99627.41
2023-02-12T17:48:29.059Z,99625.06
2023-02-12T17:50:58.112Z,99626.94
2023-02-12T17:53:26.837Z,99626.94
2023-02-12T17:55:54.804Z,99634.47
2023-02-12T17:58:23.050Z,99621.56
2023-02-12T18:00:52.774Z,99622.38
2023-02-12T18:03:20.876Z,99627.66
2023-02-12T18:05:48.984Z,99611.69
2023-02-12T18:08:17.498Z,99616.97
2023-02-12T18:10:45.932Z,99631.06
2023-02-12T18:13:14.819Z,99621.69
2023-02-12T18:15:43.427Z,99633.66
2023-02-12T18:18:13.467Z,99644.56
2023-02-12T18:20:41.764Z,99627.03
2023-02-12T18:23:10.711Z,99637.97
2023-02-12T18:25:42.068Z,99631.75
2023-02-12T18:28:11.122Z,99630.34
2023-02-12T18:30:42.680Z,99623.31
2023-02-12T18:33:13.865Z,99627.28
2023-02-12T18:35:42.324Z,99629.97
2023-02-12T18:38:10.530Z,99623.97
2023-02-12T18:40:41.434Z,99622.06
2023-02-12T18:43:09.317Z,99627.69
2023-02-12T18:45:40.079Z,99630.09
2023-02-12T18:48:09.691Z,99625.75
2023-02-12T18:50:39.174Z,99626.72
2023-02-12T18:53:07.567Z,99631.38
2023-02-12T18:55:37.795Z,99627.91
2023-02-12T18:58:06.288Z,99625.19
2023-02-12T19:00:34.762Z,99623.38
2023-02-12T19:03:02.630Z,99615.56
2023-02-12T19:05:32.203Z,99616.25
2023-02-12T19:08:01.551Z,99623.91
2023-02-12T19:10:29.391Z,99618.84
2023-02-12T19:12:57.486Z,99619.50
2023-02-12T19:15:26.115Z,99617.34
2023-02-12T19:17:55.133Z,99618.03
2023-02-12T19:20:23.099Z,99616.16
2023-02-12T19:22:51.584Z,99615.31
2023-02-12T19:25:20.856Z,99608.41
2023-02-12T19:27:49.152Z,99610.50
2023-02-12T19:30:17.679Z,99603.97
2023-02-12T19:32:46.219Z,99609.69
2023-02-12T19:35:14.076Z,99602.53
2023-02-12T19:37:42.286Z,99605.19
2023-02-12T19:40:11.095Z,99615.00
2023-02-12T19:42:40.758Z,99609.22
2023-02-12T19:45:10.009Z,99613.94
2023-02-12T19:47:38.025Z,99609.34
2023-02-12T19:50:07.020Z,99607.25
2023-02-12T19:52:36.495Z,99610.88
2023-02-12T19:55:04.611Z,99613.56
2023-02-12T19:57:32.790Z,99603.28
2023-02-12T20:00:02.555Z,99601.06
2023-02-12T20:02:30.481Z,99609.59
2023-02-12T20:04:58.492Z,99613.75
2023-02-12T20:07:26.846Z,99614.44
2023-02-12T20:09:54.931Z,99612.09
2023-02-12T20:12:23.058Z,99603.88
2023-02-12T20:14:51.498Z,99610.25
2023-02-12T20:17:21.237Z,99609.41
2023-02-12T20:19:49.113Z,99603.63
2023-02-12T20:22:17.555Z,99606.50
2023-02-12T20:24:45.537Z,99604.44
2023-02-12T20:27:16.482Z,99599.75
2023-02-12T20:29:44.914Z,99609.75
2023-02-12T20:32:12.973Z,99614.00
2023-02-12T20:34:50.462Z,99607.69
2023-02-12T20:37:19.642Z,99616.69
2023-02-12T20:39:48.128Z,99615.78
2023-02-12T20:42:16.149Z,99607.84
2023-02-12T20:44:44.566Z,99610.84
2023-02-12T20:47:12.532Z,99609.16
2023-02-12T20:49:40.524Z,99621.22
2023-02-12T20:52:10.517Z,99613.88
2023-02-12T20:54:39.144Z,99613.28
2023-02-12T20:57:07.956Z,99615.50
2023-02-12T20:59:36.616Z,99632.69
2023-02-12T21:02:04.689Z,99624.81
2023-02-12T21:04:32.812Z,99627.75
2023-02-12T21:07:01.779Z,99623.13
2023-02-12T21:09:31.326Z,99611.75
2023-02-12T21:11:59.258Z,99624.16
2023-02-12T21:14:27.749Z,99629.16
2023-02-12T21:16:56.764Z,99628.34
2023-02-12T21:19:26.482Z,99621.44
2023-02-12T21:21:55.244Z,99635.31
2023-02-12T21:24:25.051Z,99639.13
2023-02-12T21:26:55.911Z,99636.34
2023-02-12T21:29:26.576Z,99639.38
2023-02-12T21:31:55.210Z,99640.78
2023-02-12T21:34:25.162Z,99648.38
2023-02-12T21:36:55.285Z,99636.59
2023-02-12T21:39:27.738Z,99630.63
2023-02-12T21:42:00.231Z,99638.81
2023-02-12T21:44:29.033Z,99627.72
2023-02-12T21:46:58.587Z,99619.88
2023-02-12T21:49:27.853Z,99620.13
2023-02-12T21:51:58.593Z,99628.38
2023-02-12T21:54:27.476Z,99636.44
2023-02-12T21:56:57.053Z,99636.09
2023-02-12T21:59:26.844Z,99633.53
2023-02-12T22:01:58.367Z,99639.41
2023-02-12T22:04:26.439Z,99650.84
2023-02-12T22:06:55.099Z,99648.09
2023-02-12T22:09:23.923Z,99639.66
2023-02-12T22:11:53.111Z,99649.44
2023-02-12T22:14:23.550Z,99651.38
2023-02-12T22:16:52.095Z,99654.19
2023-02-12T22:19:20.337Z,99651.44
2023-02-12T22:21:51.932Z,99653.00
2023-02-12T22:24:20.052Z,99650.72
2023-02-12T22:26:48.046Z,99648.34
2023-02-12T22:29:17.462Z,99638.38
2023-02-12T22:31:48.254Z,99644.75
2023-02-12T22:34:19.153Z,99638.31
2023-02-12T22:36:47.923Z,99649.72
2023-02-12T22:39:18.018Z,99644.09
2023-02-12T22:41:46.025Z,99650.91
2023-02-12T22:44:15.350Z,99657.19
2023-02-12T22:46:44.650Z,99643.53
2023-02-12T22:49:14.904Z,99651.09
2023-02-12T22:51:43.402Z,99647.00
2023-02-12T22:54:15.172Z,99653.38
2023-02-12T22:56:43.848Z,99643.28
2023-02-12T22:59:13.084Z,99637.22
2023-02-12T23:01:41.567Z,99650.44
2023-02-12T23:04:15.765Z,99643.06
2023-02-12T23:06:44.620Z,99642.84
2023-02-12T23:09:14.890Z,99652.28
2023-02-12T23:11:42.913Z,99653.56
2023-02-12T23:14:11.415Z,99651.03
2023-02-12T23:16:39.701Z,99639.28
2023-02-12T23:19:07.690Z,99645.28
2023-02-12T23:21:37.463Z,99637.22
2023-02-12T23:24:06.770Z,99643.31
2023-02-12T23:26:36.261Z,99642.72
2023-02-12T23:29:04.275Z,99641.31
2023-02-12T23:31:32.831Z,99637.09
2023-02-12T23:34:00.593Z,99634.06
2023-02-12T23:36:29.049Z,99631.78
2023-02-12T23:38:59.716Z,99620.66
2023-02-12T23:41:27.599Z,99626.25
2023-02-12T23:43:55.393Z,99626.94
2023-02-12T23:46:23.742Z,99626.00
2023-02-12T23:48:51.624Z,99620.31
2023-02-12T23:51:20.036Z,99616.34
2023-02-12T23:53:48.294Z,99616.94
2023-02-12T23:56:17.537Z,99620.28
2023-02-12T23:58:45.934Z,99614.44
